createdAt,value
2018-08-16T00:00:47.237Z,19.18
2018-08-16T00:03:17.079Z,19.24
2018-08-16T00:05:46.586Z,19.34
2018-08-16T00:08:15.969Z,19.29
2018-08-16T00:10:45.873Z,19.31
2018-08-16T00:13:15.370Z,19.45
2018-08-16T00:15:45.209Z,19.50
2018-08-16T00:18:14.850Z,19.51
2018-08-16T00:20:44.715Z,19.52
2018-08-16T00:23:14.090Z,19.53
2018-08-16T00:25:43.992Z,19.53
2018-08-16T00:28:13.440Z,19.54
2018-08-16T00:30:43.411Z,19.54
2018-08-16T00:33:13.312Z,19.51
2018-08-16T00:35:42.730Z,19.46
2018-08-16T00:38:12.220Z,19.47
2018-08-16T00:40:41.988Z,19.44
2018-08-16T00:43:11.803Z,19.45
2018-08-16T00:45:41.656Z,19.46
2018-08-16T00:48:11.480Z,19.44
2018-08-16T00:50:40.964Z,19.46
2018-08-16T00:53:10.977Z,19.50
2018-08-16T00:55:40.436Z,19.49
2018-08-16T00:58:10.360Z,19.46
2018-08-16T01:00:40.116Z,19.48
2018-08-16T01:03:09.608Z,19.48
2018-08-16T01:05:39.358Z,19.45
2018-08-16T01:08:09.183Z,19.43
2018-08-16T01:10:38.656Z,19.55
2018-08-16T01:13:08.528Z,19.58
2018-08-16T01:15:37.996Z,19.55
2018-08-16T01:18:07.798Z,19.55
2018-08-16T01:20:37.244Z,19.55
2018-08-16T01:23:06.895Z,19.56
2018-08-16T01:25:36.279Z,19.61
2018-08-16T01:28:06.161Z,19.56
2018-08-16T01:30:35.977Z,19.57
2018-08-16T01:33:05.788Z,19.59
2018-08-16T01:35:35.215Z,19.53
2018-08-16T01:38:05.056Z,19.40
2018-08-16T01:40:34.776Z,19.31
2018-08-16T01:43:04.543Z,19.22
2018-08-16T01:45:34.336Z,19.13
2018-08-16T01:48:03.803Z,19.08
2018-08-16T01:50:33.660Z,18.97
2018-08-16T01:53:03.051Z,18.90
2018-08-16T01:55:32.919Z,18.83
2018-08-16T01:58:02.290Z,18.77
2018-08-16T02:00:32.128Z,18.65
2018-08-16T02:03:02.640Z,18.60
2018-08-16T02:05:32.496Z,18.61
2018-08-16T02:08:02.363Z,18.56
2018-08-16T02:10:32.157Z,18.46
2018-08-16T02:13:01.967Z,18.29
2018-08-16T02:15:31.450Z,18.22
2018-08-16T02:18:00.867Z,18.20
2018-08-16T02:20:30.628Z,18.08
2018-08-16T02:23:00.352Z,18.00
2018-08-16T02:25:30.518Z,17.94
2018-08-16T02:27:59.887Z,17.81
2018-08-16T02:30:29.242Z,17.71
2018-08-16T02:32:58.664Z,17.66
2018-08-16T02:35:28.023Z,17.71
2018-08-16T02:37:57.515Z,17.62
2018-08-16T02:40:26.944Z,17.76
2018-08-16T02:42:56.733Z,17.87
2018-08-16T02:45:26.492Z,17.87
2018-08-16T02:47:55.987Z,17.85
2018-08-16T02:50:25.719Z,17.80
2018-08-16T02:52:55.173Z,17.73
2018-08-16T02:55:24.627Z,17.71
2018-08-16T02:57:53.975Z,17.70
2018-08-16T03:00:23.787Z,17.69
2018-08-16T03:02:53.169Z,17.71
2018-08-16T03:05:22.662Z,17.70
2018-08-16T03:07:52.135Z,17.70
2018-08-16T03:10:21.942Z,17.69
2018-08-16T03:12:51.779Z,17.70
2018-08-16T03:15:21.217Z,17.73
2018-08-16T03:17:50.698Z,17.73
2018-08-16T03:20:20.074Z,17.75
2018-08-16T03:22:49.832Z,17.75
2018-08-16T03:25:19.659Z,17.75
2018-08-16T03:27:49.137Z,17.73
2018-08-16T03:30:18.875Z,17.73
2018-08-16T03:32:48.679Z,17.76
2018-08-16T03:35:18.495Z,17.77
2018-08-16T03:37:48.294Z,17.76
2018-08-16T03:40:18.123Z,17.75
2018-08-16T03:42:47.547Z,17.75
2018-08-16T03:45:17.274Z,17.76
2018-08-16T03:47:46.665Z,17.76
2018-08-16T03:50:16.466Z,17.77
2018-08-16T03:52:45.832Z,17.78
2018-08-16T03:55:15.242Z,17.78
2018-08-16T03:57:46.019Z,17.81
2018-08-16T04:00:15.429Z,17.82
2018-08-16T04:02:44.810Z,17.84
2018-08-16T04:05:14.219Z,17.85
2018-08-16T04:07:44.004Z,17.84
2018-08-16T04:10:14.085Z,17.69
2018-08-16T04:12:43.808Z,17.80
2018-08-16T04:15:13.242Z,17.81
2018-08-16T04:17:42.654Z,17.79
2018-08-16T04:20:12.046Z,17.80
2018-08-16T04:22:42.050Z,17.80
2018-08-16T04:25:11.742Z,17.81
2018-08-16T04:27:42.038Z,17.81
2018-08-16T04:30:12.479Z,17.84
2018-08-16T04:32:41.913Z,17.85
2018-08-16T04:35:11.530Z,17.88
2018-08-16T04:37:43.477Z,17.92
2018-08-16T04:40:13.270Z,17.99
2018-08-16T04:42:43.084Z,18.02
2018-08-16T04:45:12.951Z,18.04
2018-08-16T04:47:42.353Z,18.05
2018-08-16T04:50:13.453Z,18.06
2018-08-16T04:52:42.833Z,18.05
2018-08-16T04:55:12.241Z,18.04
2018-08-16T04:57:42.120Z,17.98
2018-08-16T05:00:13.424Z,17.98
2018-08-16T05:02:43.257Z,17.98
2018-08-16T05:05:12.806Z,18.02
2018-08-16T05:07:42.289Z,18.05
2018-08-16T05:10:12.128Z,18.13
2018-08-16T05:12:41.910Z,18.20
2018-08-16T05:15:13.577Z,18.27
2018-08-16T05:17:43.435Z,18.36
2018-08-16T05:20:14.082Z,18.45
2018-08-16T05:22:43.545Z,18.53
2018-08-16T05:25:13.056Z,18.60
2018-08-16T05:27:42.918Z,18.68
2018-08-16T05:30:13.894Z,18.80
2018-08-16T05:32:43.853Z,18.87
2018-08-16T05:35:13.761Z,18.92
2018-08-16T05:37:43.601Z,18.98
2018-08-16T05:40:13.465Z,19.05
2018-08-16T05:42:43.279Z,19.11
2018-08-16T05:45:13.123Z,19.16
2018-08-16T05:47:43.121Z,19.26
2018-08-16T05:50:13.664Z,19.34
2018-08-16T05:52:43.441Z,19.40
2018-08-16T05:55:13.361Z,19.50
2018-08-16T05:57:42.771Z,19.57
2018-08-16T06:00:14.673Z,19.67
2018-08-16T06:02:44.123Z,19.76
2018-08-16T06:05:13.978Z,19.84
2018-08-16T06:07:43.757Z,19.85
2018-08-16T06:10:14.183Z,19.89
2018-08-16T06:12:44.041Z,19.94
2018-08-16T06:15:13.960Z,20.05
2018-08-16T06:17:43.846Z,20.14
2018-08-16T06:20:13.565Z,20.16
2018-08-16T06:22:43.673Z,20.22
2018-08-16T06:25:14.243Z,20.29
2018-08-16T06:27:44.645Z,20.39
2018-08-16T06:30:18.168Z,20.48
2018-08-16T06:32:49.153Z,20.64
2018-08-16T06:35:19.217Z,20.74
2018-08-16T06:37:49.411Z,20.83
2018-08-16T06:40:19.328Z,20.90
2018-08-16T06:42:49.505Z,20.98
2018-08-16T06:45:19.328Z,21.09
2018-08-16T06:47:49.269Z,21.16
2018-08-16T06:50:18.740Z,21.26
2018-08-16T06:52:48.269Z,21.35
2018-08-16T06:55:18.545Z,21.48
2018-08-16T06:57:48.773Z,21.58
2018-08-16T07:00:19.090Z,21.73
2018-08-16T07:02:49.333Z,21.87
2018-08-16T07:05:20.762Z,22.00
2018-08-16T07:07:50.705Z,22.12
2018-08-16T07:10:20.590Z,22.26
2018-08-16T07:12:50.143Z,22.39
2018-08-16T07:15:19.583Z,22.63
2018-08-16T07:17:50.492Z,22.76
2018-08-16T07:20:21.449Z,22.85
2018-08-16T07:22:51.441Z,22.91
2018-08-16T07:25:21.453Z,22.99
2018-08-16T07:27:52.132Z,23.08
2018-08-16T07:30:21.967Z,23.21
2018-08-16T07:32:52.075Z,23.27
2018-08-16T07:35:21.809Z,23.39
2018-08-16T07:37:52.281Z,23.43
2018-08-16T07:40:22.244Z,23.45
2018-08-16T07:42:51.717Z,23.55
2018-08-16T07:45:21.880Z,23.62
2018-08-16T07:47:51.556Z,23.70
2018-08-16T07:50:22.415Z,23.75
2018-08-16T07:52:52.257Z,23.84
2018-08-16T07:55:22.281Z,23.91
2018-08-16T07:57:51.785Z,23.96
2018-08-16T08:00:21.625Z,23.87
2018-08-16T08:02:51.759Z,23.99
2018-08-16T08:05:21.612Z,24.12
2018-08-16T08:07:51.124Z,24.25
2018-08-16T08:10:20.620Z,24.36
2018-08-16T08:12:50.120Z,24.45
2018-08-16T08:15:19.651Z,24.52
2018-08-16T08:17:49.035Z,24.58
2018-08-16T08:20:19.017Z,24.65
2018-08-16T08:22:48.509Z,24.69
2018-08-16T08:25:18.040Z,24.72
2018-08-16T08:27:47.901Z,24.77
2018-08-16T08:30:17.813Z,24.87
2018-08-16T08:32:47.756Z,24.90
2018-08-16T08:35:17.656Z,24.94
2018-08-16T08:38:14.449Z,25.01
2018-08-16T08:40:44.318Z,25.08
2018-08-16T08:43:29.625Z,25.16
2018-08-16T08:45:59.107Z,24.93
2018-08-16T08:48:28.949Z,24.93
2018-08-16T08:50:58.726Z,25.09
2018-08-16T08:54:40.295Z,25.27
2018-08-16T08:57:20.841Z,25.42
2018-08-16T08:59:50.603Z,25.28
2018-08-16T09:02:20.414Z,25.43
2018-08-16T09:04:50.190Z,25.54
2018-08-16T09:07:21.226Z,25.64
2018-08-16T09:11:17.280Z,25.87
2018-08-16T09:14:06.221Z,26.23
2018-08-16T09:16:38.994Z,26.30
2018-08-16T09:19:09.852Z,26.51
2018-08-16T09:21:39.872Z,26.83
2018-08-16T09:24:09.946Z,27.02
2018-08-16T09:26:41.763Z,27.20
2018-08-16T09:30:40.217Z,27.16
2018-08-16T09:33:26.708Z,26.80
2018-08-16T09:35:56.588Z,26.88
2018-08-16T09:38:26.420Z,26.75
2018-08-16T09:40:56.291Z,26.61
2018-08-16T09:43:26.157Z,26.83
2018-08-16T09:47:11.150Z,27.13
2018-08-16T09:49:47.617Z,27.52
2018-08-16T09:52:18.230Z,27.88
2018-08-16T09:54:48.500Z,28.25
2018-08-16T09:57:18.801Z,28.47
2018-08-16T09:59:48.258Z,28.57
2018-08-16T10:02:18.737Z,28.67
2018-08-16T10:04:48.168Z,28.34
2018-08-16T10:07:17.688Z,27.96
2018-08-16T10:09:47.520Z,27.77
2018-08-16T10:12:17.365Z,27.66
2018-08-16T10:14:47.232Z,27.32
2018-08-16T10:17:17.066Z,27.07
2018-08-16T10:19:46.942Z,27.02
2018-08-16T10:22:16.671Z,27.21
2018-08-16T10:24:46.163Z,27.40
2018-08-16T10:27:15.886Z,27.51
2018-08-16T10:29:45.892Z,27.56
2018-08-16T10:32:15.663Z,27.48
2018-08-16T10:34:45.482Z,27.37
2018-08-16T10:37:15.393Z,27.25
2018-08-16T10:39:45.760Z,27.15
2018-08-16T10:42:15.994Z,27.00
2018-08-16T10:44:45.447Z,26.89
2018-08-16T10:47:14.997Z,26.90
2018-08-16T10:49:44.392Z,27.01
2018-08-16T10:52:14.311Z,27.10
2018-08-16T10:54:44.072Z,27.09
2018-08-16T10:57:13.584Z,27.06
2018-08-16T10:59:43.421Z,27.15
2018-08-16T11:02:12.965Z,27.04
2018-08-16T11:04:42.764Z,27.05
2018-08-16T11:07:12.582Z,27.12
2018-08-16T11:09:42.419Z,26.98
2018-08-16T11:12:12.356Z,26.89
2018-08-16T11:14:42.211Z,26.90
2018-08-16T11:17:12.056Z,26.88
2018-08-16T11:19:41.530Z,26.81
2018-08-16T11:22:11.790Z,26.75
2018-08-16T11:24:41.620Z,26.73
2018-08-16T11:27:11.484Z,26.69
2018-08-16T11:29:41.294Z,26.76
2018-08-16T11:32:11.154Z,26.95
2018-08-16T11:34:41.040Z,26.81
2018-08-16T11:37:10.840Z,26.72
2018-08-16T11:39:40.288Z,26.92
2018-08-16T11:42:09.731Z,27.01
2018-08-16T11:44:39.576Z,27.09
2018-08-16T11:47:09.479Z,27.18
2018-08-16T11:49:39.317Z,27.27
2018-08-16T11:52:09.234Z,27.43
2018-08-16T11:54:39.047Z,27.53
2018-08-16T11:57:08.899Z,27.44
2018-08-16T11:59:38.328Z,27.39
2018-08-16T12:02:07.869Z,26.92
2018-08-16T12:04:37.839Z,27.10
2018-08-16T12:07:07.318Z,27.39
2018-08-16T12:09:37.047Z,27.47
2018-08-16T12:12:06.892Z,27.49
2018-08-16T12:14:36.748Z,27.30
2018-08-16T12:17:06.408Z,27.50
2018-08-16T12:19:36.241Z,27.29
2018-08-16T12:22:06.169Z,27.23
2018-08-16T12:24:35.966Z,27.02
2018-08-16T12:27:05.872Z,27.07
2018-08-16T12:29:35.735Z,27.23
2018-08-16T12:32:05.808Z,27.35
2018-08-16T12:34:35.899Z,27.31
2018-08-16T12:37:05.789Z,27.04
2018-08-16T12:39:35.598Z,27.00
2018-08-16T12:42:05.737Z,27.24
2018-08-16T12:44:35.519Z,27.31
2018-08-16T12:47:05.373Z,27.55
2018-08-16T12:49:35.162Z,27.65
2018-08-16T12:52:05.087Z,27.77
2018-08-16T12:54:34.507Z,27.75
2018-08-16T12:57:03.972Z,27.80
2018-08-16T12:59:33.407Z,27.81
2018-08-16T13:02:02.878Z,27.76
2018-08-16T13:04:32.291Z,27.74
2018-08-16T13:07:02.773Z,27.82
2018-08-16T13:09:32.553Z,27.82
2018-08-16T13:12:02.403Z,27.85
2018-08-16T13:14:32.173Z,28.02
2018-08-16T13:17:02.270Z,28.03
2018-08-16T13:19:32.030Z,28.04
2018-08-16T13:22:02.105Z,28.12
2018-08-16T13:24:32.095Z,28.18
2018-08-16T13:27:04.527Z,28.23
2018-08-16T13:29:35.126Z,28.25
2018-08-16T13:32:04.967Z,28.21
2018-08-16T13:34:34.918Z,28.24
2018-08-16T13:37:04.435Z,28.26
2018-08-16T13:39:34.272Z,28.30
2018-08-16T13:42:04.147Z,28.22
2018-08-16T13:44:34.097Z,28.14
2018-08-16T13:47:03.746Z,28.19
2018-08-16T13:49:34.976Z,28.25
2018-08-16T13:52:04.762Z,28.27
2018-08-16T13:54:34.246Z,28.28
2018-08-16T13:57:04.291Z,28.16
2018-08-16T13:59:33.846Z,28.21
2018-08-16T14:02:03.708Z,28.29
2018-08-16T14:04:34.789Z,28.31
2018-08-16T14:07:04.599Z,28.29
2018-08-16T14:09:35.427Z,28.31
2018-08-16T14:12:08.466Z,28.16
2018-08-16T14:14:38.383Z,28.18
2018-08-16T14:17:08.306Z,28.23
2018-08-16T14:19:38.055Z,28.23
2018-08-16T14:22:07.785Z,28.24
2018-08-16T14:24:37.721Z,28.27
2018-08-16T14:27:07.667Z,28.34
2018-08-16T14:29:37.238Z,28.29
2018-08-16T14:32:06.747Z,28.20
2018-08-16T14:34:36.661Z,28.30
2018-08-16T14:37:08.166Z,28.40
2018-08-16T14:39:37.744Z,28.40
2018-08-16T14:42:09.058Z,28.44
2018-08-16T14:44:39.255Z,28.41
2018-08-16T14:47:08.762Z,28.47
2018-08-16T14:49:38.537Z,28.50
2018-08-16T14:52:09.292Z,28.49
2018-08-16T14:54:38.772Z,28.46
2018-08-16T14:57:08.370Z,28.43
2018-08-16T14:59:38.409Z,28.44
2018-08-16T15:02:07.956Z,28.42
2018-08-16T15:04:37.523Z,28.45
2018-08-16T15:07:07.558Z,28.49
2018-08-16T15:09:37.380Z,28.29
2018-08-16T15:12:07.120Z,28.18
2018-08-16T15:14:37.023Z,28.03
2018-08-16T15:17:07.096Z,27.92
2018-08-16T15:19:37.695Z,27.95
2018-08-16T15:22:08.458Z,28.11
2018-08-16T15:24:37.944Z,27.78
2018-08-16T15:27:07.939Z,27.77
2018-08-16T15:29:41.213Z,27.64
2018-08-16T15:32:12.841Z,27.63
2018-08-16T15:34:42.961Z,27.63
2018-08-16T15:37:13.933Z,27.60
2018-08-16T15:39:47.170Z,27.57
2018-08-16T15:42:20.865Z,27.84
2018-08-16T15:44:52.406Z,27.89
2018-08-16T15:47:22.997Z,27.86
2018-08-16T15:49:57.421Z,27.93
2018-08-16T15:52:29.132Z,27.88
2018-08-16T15:54:59.708Z,27.81
2018-08-16T15:57:32.788Z,27.94
2018-08-16T16:00:05.262Z,28.07
2018-08-16T16:02:55.526Z,27.91
2018-08-16T16:17:57.849Z,27.87
2018-08-16T16:20:28.378Z,27.76
2018-08-16T16:22:59.653Z,27.71
2018-08-16T16:25:31.074Z,27.57
2018-08-16T16:28:08.167Z,27.43
2018-08-16T16:30:38.088Z,27.51
2018-08-16T16:33:07.953Z,27.37
2018-08-16T16:35:39.174Z,27.42
2018-08-16T16:38:08.811Z,27.41
2018-08-16T16:40:39.583Z,27.31
2018-08-16T16:43:10.456Z,27.28
2018-08-16T16:45:40.141Z,27.52
2018-08-16T16:48:10.466Z,27.50
2018-08-16T16:50:51.218Z,27.30
2018-08-16T16:53:29.478Z,27.55
2018-08-16T16:55:59.340Z,27.46
2018-08-16T16:58:29.295Z,27.38
2018-08-16T17:00:59.120Z,27.30
2018-08-16T17:03:30.314Z,27.27
2018-08-16T17:06:00.088Z,27.25
2018-08-16T17:08:33.555Z,27.41
2018-08-16T17:11:03.185Z,27.30
2018-08-16T17:13:33.997Z,27.26
2018-08-16T17:16:03.680Z,27.27
2018-08-16T17:19:39.588Z,27.23
2018-08-16T17:22:11.491Z,27.18
2018-08-16T17:24:42.041Z,27.31
2018-08-16T17:27:15.945Z,27.33
2018-08-16T17:29:46.109Z,27.25
2018-08-16T17:32:17.806Z,27.21
2018-08-16T17:34:47.958Z,27.16
2018-08-16T17:40:05.168Z,27.07
2018-08-16T17:42:36.005Z,27.01
2018-08-16T17:45:07.425Z,26.84
2018-08-16T17:47:37.048Z,26.66
2018-08-16T17:50:15.983Z,26.58
2018-08-16T17:52:45.584Z,26.61
2018-08-16T17:55:17.946Z,26.49
2018-08-16T17:57:47.662Z,26.27
2018-08-16T18:00:17.161Z,26.07
2018-08-16T18:02:47.355Z,25.99
2018-08-16T18:05:16.822Z,25.84
2018-08-16T18:07:46.754Z,25.72
2018-08-16T18:10:16.428Z,25.53
2018-08-16T18:12:47.526Z,25.41
2018-08-16T18:15:18.953Z,25.25
2018-08-16T18:17:48.584Z,25.11
2018-08-16T18:20:18.180Z,25.00
2018-08-16T18:22:47.921Z,24.85
2018-08-16T18:25:17.402Z,24.82
2018-08-16T18:27:47.000Z,24.69
2018-08-16T18:30:18.320Z,24.62
2018-08-16T18:32:50.741Z,24.56
2018-08-16T18:35:20.613Z,24.39
2018-08-16T18:37:50.497Z,24.37
2018-08-16T18:40:20.434Z,24.50
2018-08-16T18:42:49.853Z,24.45
2018-08-16T18:45:19.901Z,24.50
2018-08-16T18:47:49.355Z,24.38
2018-08-16T18:50:18.887Z,24.40
2018-08-16T18:52:48.981Z,24.46
2018-08-16T18:55:18.643Z,24.45
2018-08-16T18:57:48.138Z,24.30
2018-08-16T19:00:18.641Z,24.15
2018-08-16T19:02:51.375Z,23.89
2018-08-16T19:05:21.472Z,23.65
2018-08-16T19:07:51.833Z,23.56
2018-08-16T19:10:22.252Z,23.54
2018-08-16T19:12:52.262Z,23.64
2018-08-16T19:15:22.928Z,23.42
2018-08-16T19:17:53.856Z,23.35
2018-08-16T19:25:54.838Z,23.34
2018-08-16T19:28:24.643Z,23.34
2018-08-16T19:30:54.947Z,23.42
2018-08-16T19:33:35.670Z,23.12
2018-08-16T19:36:05.777Z,23.25
2018-08-16T19:38:35.281Z,23.15
2018-08-16T19:41:05.847Z,23.10
2018-08-16T19:43:36.368Z,23.14
2018-08-16T19:46:06.445Z,23.10
2018-08-16T19:48:37.316Z,22.90
2018-08-16T19:51:08.761Z,22.97
2018-08-16T19:53:38.892Z,22.80
2018-08-16T19:56:08.633Z,22.73
2018-08-16T19:58:38.417Z,22.61
2018-08-16T20:01:12.485Z,22.54
2018-08-16T20:03:42.189Z,22.53
2018-08-16T20:06:11.963Z,22.62
2018-08-16T20:08:41.511Z,22.75
2018-08-16T20:11:11.527Z,22.68
2018-08-16T20:13:41.645Z,22.54
2018-08-16T20:16:12.482Z,22.76
2018-08-16T20:18:42.189Z,23.07
2018-08-16T20:21:12.223Z,23.05
2018-08-16T20:23:48.451Z,22.99
2018-08-16T20:26:18.930Z,23.02
2018-08-16T20:28:48.798Z,23.09
2018-08-16T20:31:18.198Z,23.10
2018-08-16T20:33:48.207Z,23.04
2018-08-16T20:36:17.923Z,23.04
2018-08-16T20:38:47.947Z,22.86
2018-08-16T20:41:17.886Z,22.68
2018-08-16T20:43:47.861Z,22.50
2018-08-16T20:46:17.683Z,22.85
2018-08-16T20:48:48.490Z,22.81
2018-08-16T20:51:18.411Z,22.79
2018-08-16T20:53:48.267Z,22.70
2018-08-16T20:56:17.698Z,22.76
2018-08-16T20:58:47.521Z,22.87
2018-08-16T21:01:17.252Z,22.81
2018-08-16T21:03:47.065Z,22.74
2018-08-16T21:06:16.841Z,22.75
2018-08-16T21:08:46.644Z,22.81
2018-08-16T21:11:16.107Z,22.74
2018-08-16T21:13:45.913Z,22.64
2018-08-16T21:16:15.713Z,22.49
2018-08-16T21:18:45.128Z,22.40
2018-08-16T21:21:15.030Z,22.26
2018-08-16T21:23:44.798Z,22.30
2018-08-16T21:26:14.223Z,22.46
2018-08-16T21:28:43.979Z,22.34
2018-08-16T21:31:13.870Z,22.19
2018-08-16T21:33:43.590Z,22.13
2018-08-16T21:36:13.368Z,22.12
2018-08-16T21:38:42.862Z,22.19
2018-08-16T21:41:12.335Z,22.06
2018-08-16T21:43:42.122Z,22.01
2018-08-16T21:46:11.634Z,21.96
2018-08-16T21:48:41.061Z,21.77
2018-08-16T21:51:10.442Z,21.71
2018-08-16T21:53:40.354Z,21.60
2018-08-16T21:56:10.551Z,21.61
2018-08-16T21:58:40.022Z,21.53
2018-08-16T22:01:10.056Z,21.47
2018-08-16T22:03:39.563Z,21.42
2018-08-16T22:06:11.378Z,21.34
2018-08-16T22:08:43.875Z,21.31
2018-08-16T22:11:13.348Z,21.29
2018-08-16T22:13:43.222Z,21.18
2018-08-16T22:16:13.120Z,21.10
2018-08-16T22:18:43.118Z,21.07
2018-08-16T22:21:12.934Z,21.11
2018-08-16T22:23:42.802Z,21.05
2018-08-16T22:26:13.490Z,21.05
2018-08-16T22:28:43.239Z,20.97
2018-08-16T22:31:13.074Z,21.02
2018-08-16T22:33:43.125Z,21.14
2018-08-16T22:36:12.974Z,21.18
2018-08-16T22:38:42.818Z,21.08
2018-08-16T22:41:12.579Z,21.01
2018-08-16T22:43:42.434Z,20.97
2018-08-16T22:46:12.377Z,20.96
2018-08-16T22:48:42.165Z,20.90
2018-08-16T22:51:11.657Z,20.89
2018-08-16T22:53:41.130Z,20.88
2018-08-16T22:56:10.945Z,20.93
2018-08-16T22:58:40.806Z,20.97
2018-08-16T23:01:10.673Z,20.96
2018-08-16T23:03:40.467Z,20.98
2018-08-16T23:06:10.338Z,20.85
2018-08-16T23:08:40.410Z,20.92
2018-08-16T23:11:10.199Z,21.06
2018-08-16T23:13:39.972Z,20.90
2018-08-16T23:16:09.427Z,20.89
2018-08-16T23:18:38.856Z,20.96
2018-08-16T23:21:08.785Z,20.93
2018-08-16T23:23:38.673Z,20.80
2018-08-16T23:26:08.589Z,20.73
2018-08-16T23:28:38.071Z,20.73
2018-08-16T23:31:07.881Z,20.71
2018-08-16T23:33:37.344Z,20.59
2018-08-16T23:36:06.806Z,20.56
2018-08-16T23:38:37.323Z,20.49
2018-08-16T23:41:07.160Z,20.35
2018-08-16T23:43:36.562Z,20.21
2018-08-16T23:46:06.525Z,20.28
2018-08-16T23:48:36.301Z,20.19
2018-08-16T23:51:06.219Z,20.02
2018-08-16T23:53:35.700Z,19.94
2018-08-16T23:56:05.726Z,19.89
2018-08-16T23:58:35.167Z,19.75
